Wetterdaten: Woche 09.06.14 - 15.06.14 (KW24)
Datum Zeit Temp. A. Feuchte A. Luftdruck Regen Wind Richtung Sonnenschein ET UV Solar Taupunkt Windchill Windben
09.06.2014 00:00 17,8 C 77 % 1018,3 hPa 0,0 l/m 0,0 km/h (0 Bft) N 0,00 h 0,025 mm 0,0 UV-I 0 W/m 13,7 C 17,8 C 0,3 km/h (0 Bft)
09.06.2014 01:00 16,7 C 83 % 1018,2 hPa 0,0 l/m 0,1 km/h (0 Bft) O 0,00 h 0,025 mm 0,0 UV-I 0 W/m 13,7 C 16,7 C 0,2 km/h (0 Bft)
09.06.2014 02:00 15,7 C 86 % 1018,1 hPa 0,0 l/m 0,0 km/h (0 Bft) N 0,00 h 0,025 mm 0,0 UV-I 0 W/m 13,3 C 15,7 C 0,0 km/h (0 Bft)
09.06.2014 03:00 14,9 C 89 % 1018,0 hPa 0,0 l/m 0,0 km/h (0 Bft) N 0,00 h 0,000 mm 0,0 UV-I 0 W/m 13,0 C 14,9 C 0,0 km/h (0 Bft)
09.06.2014 04:00 14,3 C 91 % 1017,9 hPa 0,0 l/m 0,0 km/h (0 Bft) N 0,00 h 0,000 mm 0,0 UV-I 0 W/m 12,8 C 14,3 C 0,0 km/h (0 Bft)
09.06.2014 05:00 13,8 C 91 % 1017,9 hPa 0,0 l/m 0,0 km/h (0 Bft) N 0,00 h 0,000 mm 0,0 UV-I 12 W/m 12,4 C 13,8 C 0,0 km/h (0 Bft)
09.06.2014 06:00 14,8 C 89 % 1018,2 hPa 0,0 l/m 0,0 km/h (0 Bft) N 0,00 h 0,000 mm 0,0 UV-I 28 W/m 12,9 C 14,8 C 0,2 km/h (0 Bft)
09.06.2014 07:00 17,8 C 82 % 1018,2 hPa 0,0 l/m 0,0 km/h (0 Bft) N 0,62 h 0,025 mm 1,0 UV-I 197 W/m 14,7 C 17,8 C 0,6 km/h (0 Bft)
09.06.2014 08:00 22,5 C 69 % 1018,2 hPa 0,0 l/m 0,1 km/h (0 Bft) SO 1,00 h 0,102 mm 1,8 UV-I 445 W/m 16,6 C 22,5 C 0,7 km/h (0 Bft)
09.06.2014 09:00 26,7 C 56 % 1018,0 hPa 0,0 l/m 0,9 km/h (0 Bft) SW 1,00 h 0,279 mm 3,1 UV-I 600 W/m 17,1 C 26,7 C 2,4 km/h (1 Bft)
09.06.2014 10:00 28,6 C 46 % 1017,7 hPa 0,0 l/m 1,8 km/h (1 Bft) O-NO 1,00 h 0,406 mm 4,6 UV-I 728 W/m 15,9 C 28,6 C 4,2 km/h (1 Bft)
09.06.2014 11:00 30,2 C 41 % 1017,6 hPa 0,0 l/m 2,8 km/h (1 Bft) O-NO 1,00 h 0,508 mm 5,9 UV-I 812 W/m 15,6 C 30,2 C 4,8 km/h (1 Bft)
09.06.2014 12:00 31,4 C 34 % 1017,4 hPa 0,0 l/m 5,6 km/h (1 Bft) O-SO 1,00 h 0,584 mm 6,8 UV-I 861 W/m 13,6 C 31,4 C 10,0 km/h (2 Bft)
09.06.2014 13:00 32,4 C 31 % 1017,0 hPa 0,0 l/m 6,3 km/h (2 Bft) O-NO 1,00 h 0,660 mm 7,0 UV-I 866 W/m 13,1 C 32,4 C 11,0 km/h (2 Bft)
09.06.2014 14:00 32,6 C 29 % 1016,7 hPa 0,0 l/m 5,5 km/h (1 Bft) SO 1,00 h 0,686 mm 6,3 UV-I 826 W/m 12,2 C 32,6 C 9,8 km/h (2 Bft)
09.06.2014 15:00 32,9 C 27 % 1016,3 hPa 0,0 l/m 4,9 km/h (1 Bft) S 1,00 h 0,635 mm 5,1 UV-I 740 W/m 11,4 C 32,9 C 8,4 km/h (2 Bft)
09.06.2014 16:00 32,6 C 26 % 1015,9 hPa 0,0 l/m 6,0 km/h (2 Bft) SO 1,00 h 0,584 mm 3,6 UV-I 610 W/m 10,5 C 32,6 C 10,1 km/h (2 Bft)
09.06.2014 17:00 32,1 C 26 % 1015,8 hPa 0,0 l/m 6,5 km/h (2 Bft) SO 1,00 h 0,508 mm 2,0 UV-I 341 W/m 10,0 C 32,1 C 11,3 km/h (2 Bft)
09.06.2014 18:00 31,2 C 25 % 1015,6 hPa 0,0 l/m 4,3 km/h (1 Bft) O-SO 0,97 h 0,330 mm 0,9 UV-I 63 W/m 8,8 C 31,1 C 8,4 km/h (2 Bft)
09.06.2014 19:00 30,1 C 28 % 1015,5 hPa 0,0 l/m 3,8 km/h (1 Bft) SO 0,00 h 0,127 mm 0,0 UV-I 39 W/m 9,5 C 30,1 C 7,2 km/h (2 Bft)
09.06.2014 20:00 28,4 C 33 % 1015,7 hPa 0,0 l/m 2,9 km/h (1 Bft) O-SO 0,00 h 0,102 mm 0,0 UV-I 20 W/m 10,4 C 28,4 C 5,3 km/h (1 Bft)
09.06.2014 21:00 24,9 C 41 % 1016,0 hPa 0,0 l/m 1,7 km/h (1 Bft) O 0,00 h 0,051 mm 0,0 UV-I 6 W/m 10,8 C 24,9 C 3,4 km/h (1 Bft)
09.06.2014 22:00 22,8 C 45 % 1016,4 hPa 0,0 l/m 1,5 km/h (1 Bft) O-NO 0,00 h 0,025 mm 0,0 UV-I 0 W/m 10,0 C 22,8 C 2,9 km/h (1 Bft)
09.06.2014 23:00 20,3 C 56 % 1016,8 hPa 0,0 l/m 0,0 km/h (0 Bft) O 0,00 h 0,076 mm 0,0 UV-I 0 W/m 11,3 C 20,3 C 0,4 km/h (0 Bft)
10.06.2014 00:00 18,4 C 66 % 1017,0 hPa 0,0 l/m 0,2 km/h (0 Bft) O-NO 0,00 h 0,051 mm 0,0 UV-I 0 W/m 12,0 C 18,4 C 0,8 km/h (0 Bft)
10.06.2014 01:00 17,2 C 73 % 1016,8 hPa 0,0 l/m 0,0 km/h (0 Bft) N 0,00 h 0,025 mm 0,0 UV-I 0 W/m 12,3 C 17,2 C 0,2 km/h (0 Bft)
10.06.2014 02:00 16,4 C 78 % 1016,5 hPa 0,0 l/m 0,2 km/h (0 Bft) N-NW 0,00 h 0,025 mm 0,0 UV-I 0 W/m 12,6 C 16,4 C 0,6 km/h (0 Bft)
10.06.2014 03:00 16,6 C 82 % 1016,3 hPa 0,0 l/m 1,8 km/h (1 Bft) N-NW 0,00 h 0,025 mm 0,0 UV-I 0 W/m 13,4 C 16,6 C 3,3 km/h (1 Bft)
10.06.2014 04:00 15,5 C 85 % 1016,3 hPa 0,0 l/m 0,7 km/h (0 Bft) NW 0,00 h 0,000 mm 0,0 UV-I 0 W/m 12,9 C 15,5 C 1,3 km/h (1 Bft)
10.06.2014 05:00 14,9 C 88 % 1016,5 hPa 0,0 l/m 0,0 km/h (0 Bft) N 0,00 h 0,000 mm 0,0 UV-I 7 W/m 13,0 C 14,9 C 0,2 km/h (0 Bft)
10.06.2014 06:00 16,2 C 84 % 1016,9 hPa 0,0 l/m 3,6 km/h (1 Bft) NW 0,00 h 0,000 mm 0,0 UV-I 24 W/m 13,5 C 15,9 C 5,5 km/h (1 Bft)
10.06.2014 07:00 19,5 C 73 % 1017,2 hPa 0,0 l/m 2,1 km/h (1 Bft) NW 0,62 h 0,025 mm 1,1 UV-I 203 W/m 14,6 C 19,5 C 3,9 km/h (1 Bft)
10.06.2014 08:00 23,0 C 61 % 1017,0 hPa 0,0 l/m 5,1 km/h (1 Bft) N 1,00 h 0,127 mm 1,9 UV-I 451 W/m 15,2 C 22,9 C 8,3 km/h (2 Bft)
10.06.2014 09:00 25,7 C 55 % 1016,7 hPa 0,0 l/m 2,1 km/h (1 Bft) N 1,00 h 0,305 mm 3,2 UV-I 600 W/m 15,9 C 25,7 C 4,1 km/h (1 Bft)
10.06.2014 10:00 28,1 C 47 % 1016,5 hPa 0,0 l/m 5,0 km/h (1 Bft) N 1,00 h 0,406 mm 4,7 UV-I 735 W/m 15,8 C 28,1 C 7,8 km/h (2 Bft)
10.06.2014 11:00 30,3 C 38 % 1016,4 hPa 0,0 l/m 5,4 km/h (1 Bft) N 1,00 h 0,533 mm 6,0 UV-I 820 W/m 14,3 C 30,2 C 8,8 km/h (2 Bft)
10.06.2014 12:00 31,6 C 33 % 1016,3 hPa 0,0 l/m 4,8 km/h (1 Bft) O-SO 1,00 h 0,610 mm 6,9 UV-I 877 W/m 13,4 C 31,5 C 8,6 km/h (2 Bft)
10.06.2014 13:00 31,8 C 31 % 1016,4 hPa 0,0 l/m 4,8 km/h (1 Bft) S 1,00 h 0,660 mm 6,6 UV-I 802 W/m 12,7 C 31,8 C 8,3 km/h (2 Bft)
10.06.2014 14:00 32,7 C 31 % 1016,0 hPa 0,0 l/m 4,2 km/h (1 Bft) NO 1,00 h 0,610 mm 6,3 UV-I 826 W/m 13,2 C 32,7 C 7,3 km/h (2 Bft)
10.06.2014 15:00 33,2 C 29 % 1015,5 hPa 0,0 l/m 4,1 km/h (1 Bft) N 1,00 h 0,635 mm 5,1 UV-I 744 W/m 12,5 C 33,2 C 7,2 km/h (2 Bft)
10.06.2014 16:00 33,0 C 28 % 1015,1 hPa 0,0 l/m 4,3 km/h (1 Bft) N-NO 1,00 h 0,584 mm 3,6 UV-I 618 W/m 12,2 C 33,0 C 7,9 km/h (2 Bft)
10.06.2014 17:00 32,4 C 27 % 1014,9 hPa 0,0 l/m 5,0 km/h (1 Bft) O-NO 1,00 h 0,483 mm 1,9 UV-I 341 W/m 11,2 C 32,4 C 9,8 km/h (2 Bft)
10.06.2014 18:00 31,2 C 30 % 1014,8 hPa 0,0 l/m 5,6 km/h (1 Bft) O-NO 0,72 h 0,305 mm 1,0 UV-I 51 W/m 11,3 C 31,1 C 10,5 km/h (2 Bft)
10.06.2014 19:00 28,3 C 40 % 1015,2 hPa 0,0 l/m 4,5 km/h (1 Bft) O-NO 0,00 h 0,127 mm 0,0 UV-I 18 W/m 13,4 C 28,3 C 9,1 km/h (2 Bft)
10.06.2014 20:00 26,4 C 45 % 1016,0 hPa 0,0 l/m 4,1 km/h (1 Bft) N-NW 0,00 h 0,076 mm 0,0 UV-I 10 W/m 13,5 C 26,4 C 6,4 km/h (2 Bft)
10.06.2014 21:00 24,9 C 65 % 1017,4 hPa 0,0 l/m 8,4 km/h (2 Bft) N-NW 0,00 h 0,051 mm 0,0 UV-I 0 W/m 17,7 C 24,4 C 13,5 km/h (3 Bft)
10.06.2014 22:00 23,7 C 57 % 1017,9 hPa 0,0 l/m 2,6 km/h (1 Bft) N-NW 0,00 h 0,051 mm 0,0 UV-I 0 W/m 14,8 C 23,7 C 5,0 km/h (1 Bft)
10.06.2014 23:00 22,4 C 55 % 1017,5 hPa 0,0 l/m 3,1 km/h (1 Bft) NO 0,00 h 0,051 mm 0,0 UV-I 0 W/m 12,9 C 22,4 C 5,7 km/h (1 Bft)
11.06.2014 00:00 21,1 C 60 % 1017,5 hPa 0,0 l/m 0,6 km/h (0 Bft) NW 0,00 h 0,051 mm 0,0 UV-I 0 W/m 12,9 C 21,1 C 1,5 km/h (1 Bft)
11.06.2014 01:00 19,2 C 69 % 1017,6 hPa 0,0 l/m 0,2 km/h (0 Bft) NO 0,00 h 0,051 mm 0,0 UV-I 0 W/m 13,3 C 19,2 C 0,6 km/h (0 Bft)
11.06.2014 02:00 17,9 C 77 % 1017,7 hPa 0,0 l/m 0,9 km/h (0 Bft) N 0,00 h 0,025 mm 0,0 UV-I 0 W/m 13,7 C 17,9 C 1,8 km/h (1 Bft)
11.06.2014 03:00 17,7 C 80 % 1018,0 hPa 0,0 l/m 2,1 km/h (1 Bft) NW 0,00 h 0,025 mm 0,0 UV-I 0 W/m 14,2 C 17,7 C 3,3 km/h (1 Bft)
11.06.2014 04:00 16,8 C 83 % 1018,1 hPa 0,0 l/m 0,0 km/h (0 Bft) N 0,00 h 0,000 mm 0,0 UV-I 0 W/m 13,9 C 16,8 C 0,1 km/h (0 Bft)
11.06.2014 05:00 16,1 C 87 % 1018,2 hPa 0,0 l/m 0,1 km/h (0 Bft) O 0,00 h 0,000 mm 0,0 UV-I 15 W/m 14,0 C 16,1 C 0,3 km/h (0 Bft)
11.06.2014 06:00 16,7 C 86 % 1018,3 hPa 0,0 l/m 1,4 km/h (1 Bft) W-NW 0,28 h 0,000 mm 0,5 UV-I 45 W/m 14,3 C 16,6 C 2,9 km/h (1 Bft)
11.06.2014 07:00 20,2 C 79 % 1019,2 hPa 0,0 l/m 4,7 km/h (1 Bft) S 1,00 h 0,025 mm 0,9 UV-I 213 W/m 16,3 C 20,0 C 7,9 km/h (2 Bft)
11.06.2014 08:00 23,2 C 66 % 1019,0 hPa 0,0 l/m 1,6 km/h (1 Bft) O-SO 1,00 h 0,152 mm 1,7 UV-I 422 W/m 16,5 C 23,2 C 3,4 km/h (1 Bft)
11.06.2014 09:00 23,5 C 65 % 1018,6 hPa 0,0 l/m 2,9 km/h (1 Bft) W-SW 1,00 h 0,254 mm 2,2 UV-I 321 W/m 16,6 C 23,5 C 4,9 km/h (1 Bft)
11.06.2014 10:00 25,1 C 61 % 1018,4 hPa 0,0 l/m 3,0 km/h (1 Bft) W-NW 1,00 h 0,229 mm 3,8 UV-I 560 W/m 16,9 C 25,1 C 5,3 km/h (1 Bft)
11.06.2014 11:00 27,3 C 56 % 1019,0 hPa 0,0 l/m 8,3 km/h (2 Bft) NW 1,00 h 0,381 mm 5,6 UV-I 747 W/m 17,7 C 27,0 C 13,0 km/h (3 Bft)
11.06.2014 12:00 28,7 C 44 % 1019,1 hPa 0,0 l/m 8,6 km/h (2 Bft) N-NW 1,00 h 0,533 mm 6,7 UV-I 825 W/m 15,2 C 28,4 C 13,0 km/h (3 Bft)
11.06.2014 13:00 29,6 C 45 % 1019,1 hPa 0,0 l/m 8,1 km/h (2 Bft) NW 1,00 h 0,635 mm 6,0 UV-I 763 W/m 16,4 C 29,4 C 12,7 km/h (3 Bft)
11.06.2014 14:00 26,4 C 64 % 1019,3 hPa 0,0 l/m 14,4 km/h (3 Bft) NW 1,00 h 0,559 mm 3,2 UV-I 401 W/m 18,9 C 25,1 C 22,0 km/h (4 Bft)
11.06.2014 15:00 24,3 C 75 % 1019,9 hPa 0,8 l/m 10,0 km/h (2 Bft) N 1,00 h 0,356 mm 2,4 UV-I 403 W/m 19,5 C 23,4 C 15,2 km/h (3 Bft)
11.06.2014 16:00 25,0 C 69 % 1019,5 hPa 0,0 l/m 12,4 km/h (3 Bft) N 1,00 h 0,279 mm 3,7 UV-I 612 W/m 18,9 C 23,8 C 18,1 km/h (3 Bft)
11.06.2014 17:00 24,9 C 66 % 1020,0 hPa 0,0 l/m 10,6 km/h (2 Bft) N 1,00 h 0,432 mm 2,1 UV-I 346 W/m 18,0 C 24,0 C 16,3 km/h (3 Bft)
11.06.2014 18:00 24,4 C 65 % 1020,3 hPa 0,0 l/m 11,1 km/h (2 Bft) N-NO 1,00 h 0,279 mm 1,0 UV-I 100 W/m 17,4 C 23,3 C 16,9 km/h (3 Bft)
11.06.2014 19:00 23,5 C 65 % 1020,6 hPa 0,0 l/m 11,5 km/h (2 Bft) N 0,27 h 0,127 mm 0,0 UV-I 42 W/m 16,4 C 22,3 C 17,7 km/h (3 Bft)
11.06.2014 20:00 21,9 C 69 % 1021,4 hPa 0,0 l/m 8,5 km/h (2 Bft) N 0,00 h 0,102 mm 0,0 UV-I 18 W/m 16,0 C 21,2 C 12,9 km/h (3 Bft)
11.06.2014 21:00 20,2 C 76 % 1022,4 hPa 0,0 l/m 5,5 km/h (1 Bft) N 0,00 h 0,051 mm 0,0 UV-I 6 W/m 15,9 C 20,0 C 9,0 km/h (2 Bft)
11.06.2014 22:00 19,1 C 80 % 1022,9 hPa 0,0 l/m 6,4 km/h (2 Bft) N 0,00 h 0,025 mm 0,0 UV-I 0 W/m 15,6 C 18,6 C 10,1 km/h (2 Bft)
11.06.2014 23:00 18,0 C 84 % 1023,1 hPa 0,0 l/m 3,1 km/h (1 Bft) N 0,00 h 0,025 mm 0,0 UV-I 0 W/m 15,4 C 18,0 C 5,0 km/h (1 Bft)
12.06.2014 00:00 17,1 C 87 % 1023,3 hPa 0,0 l/m 1,6 km/h (1 Bft) N 0,00 h 0,025 mm 0,0 UV-I 0 W/m 15,0 C 17,1 C 3,3 km/h (1 Bft)
12.06.2014 01:00 16,4 C 90 % 1023,1 hPa 0,0 l/m 0,6 km/h (0 Bft) N 0,00 h 0,025 mm 0,0 UV-I 0 W/m 14,8 C 16,4 C 1,7 km/h (1 Bft)
12.06.2014 02:00 15,8 C 91 % 1022,9 hPa 0,0 l/m 1,3 km/h (1 Bft) N 0,00 h 0,000 mm 0,0 UV-I 0 W/m 14,3 C 15,8 C 2,5 km/h (1 Bft)
12.06.2014 03:00 15,4 C 92 % 1023,0 hPa 0,0 l/m 0,9 km/h (0 Bft) N-NW 0,00 h 0,000 mm 0,0 UV-I 0 W/m 14,0 C 15,4 C 1,9 km/h (1 Bft)
12.06.2014 04:00 14,9 C 93 % 1022,7 hPa 0,0 l/m 1,1 km/h (1 Bft) N 0,00 h 0,000 mm 0,0 UV-I 0 W/m 13,8 C 14,9 C 2,5 km/h (1 Bft)
12.06.2014 05:00 14,8 C 94 % 1023,0 hPa 0,0 l/m 1,3 km/h (1 Bft) N 0,00 h 0,000 mm 0,0 UV-I 15 W/m 13,8 C 14,8 C 2,7 km/h (1 Bft)
12.06.2014 06:00 15,3 C 94 % 1023,3 hPa 0,0 l/m 1,7 km/h (1 Bft) N 0,12 h 0,000 mm 0,0 UV-I 39 W/m 14,2 C 15,3 C 3,0 km/h (1 Bft)
12.06.2014 07:00 16,7 C 89 % 1023,4 hPa 0,0 l/m 6,4 km/h (2 Bft) N 1,00 h 0,025 mm 0,9 UV-I 183 W/m 15,0 C 16,4 C 9,4 km/h (2 Bft)
12.06.2014 08:00 18,8 C 82 % 1023,4 hPa 0,0 l/m 7,8 km/h (2 Bft) N-NO 1,00 h 0,102 mm 1,8 UV-I 400 W/m 15,5 C 18,0 C 11,4 km/h (2 Bft)
12.06.2014 09:00 19,8 C 75 % 1023,3 hPa 0,0 l/m 9,0 km/h (2 Bft) N 1,00 h 0,254 mm 3,2 UV-I 562 W/m 15,2 C 18,8 C 13,1 km/h (3 Bft)
12.06.2014 10:00 21,7 C 68 % 1023,1 hPa 0,0 l/m 7,3 km/h (2 Bft) N-NO 1,00 h 0,356 mm 4,6 UV-I 657 W/m 15,5 C 21,2 C 11,4 km/h (2 Bft)
12.06.2014 11:00 22,1 C 65 % 1023,2 hPa 0,0 l/m 7,9 km/h (2 Bft) N 1,00 h 0,432 mm 4,7 UV-I 509 W/m 15,1 C 21,4 C 11,5 km/h (2 Bft)
12.06.2014 12:00 23,4 C 59 % 1023,0 hPa 0,0 l/m 6,2 km/h (2 Bft) N 1,00 h 0,381 mm 6,5 UV-I 780 W/m 15,0 C 23,1 C 10,1 km/h (2 Bft)
12.06.2014 13:00 23,9 C 56 % 1022,7 hPa 0,0 l/m 7,1 km/h (2 Bft) NO 1,00 h 0,533 mm 6,2 UV-I 723 W/m 14,4 C 23,5 C 11,0 km/h (2 Bft)
12.06.2014 14:00 25,0 C 51 % 1022,2 hPa 0,0 l/m 7,1 km/h (2 Bft) N 1,00 h 0,483 mm 6,4 UV-I 771 W/m 14,0 C 24,6 C 11,0 km/h (2 Bft)
12.06.2014 15:00 25,0 C 49 % 1021,6 hPa 0,0 l/m 7,7 km/h (2 Bft) N 1,00 h 0,559 mm 4,7 UV-I 665 W/m 13,5 C 24,6 C 11,9 km/h (2 Bft)
12.06.2014 16:00 24,2 C 50 % 1021,2 hPa 0,0 l/m 8,6 km/h (2 Bft) NW 1,00 h 0,432 mm 2,9 UV-I 402 W/m 13,0 C 23,6 C 13,6 km/h (3 Bft)
12.06.2014 17:00 23,1 C 52 % 1020,9 hPa 0,0 l/m 10,6 km/h (2 Bft) N 1,00 h 0,330 mm 1,4 UV-I 187 W/m 12,8 C 22,0 C 15,8 km/h (3 Bft)
12.06.2014 18:00 22,3 C 52 % 1020,7 hPa 0,0 l/m 9,0 km/h (2 Bft) N 1,00 h 0,203 mm 0,8 UV-I 135 W/m 12,0 C 21,5 C 14,6 km/h (3 Bft)
12.06.2014 19:00 21,4 C 53 % 1020,5 hPa 0,0 l/m 8,1 km/h (2 Bft) N 0,40 h 0,152 mm 0,6 UV-I 48 W/m 11,3 C 20,6 C 12,8 km/h (3 Bft)
12.06.2014 20:00 19,6 C 57 % 1020,5 hPa 0,0 l/m 7,0 km/h (2 Bft) N 0,00 h 0,102 mm 0,0 UV-I 19 W/m 10,8 C 19,1 C 10,8 km/h (2 Bft)
12.06.2014 21:00 17,7 C 63 % 1020,9 hPa 0,0 l/m 6,2 km/h (2 Bft) N 0,00 h 0,051 mm 0,0 UV-I 6 W/m 10,6 C 17,4 C 9,7 km/h (2 Bft)
12.06.2014 22:00 16,2 C 69 % 1021,6 hPa 0,0 l/m 3,4 km/h (1 Bft) N-NO 0,00 h 0,025 mm 0,0 UV-I 0 W/m 10,6 C 16,2 C 5,5 km/h (1 Bft)
12.06.2014 23:00 15,2 C 73 % 1021,6 hPa 0,0 l/m 4,0 km/h (1 Bft) N 0,00 h 0,025 mm 0,0 UV-I 0 W/m 10,4 C 15,2 C 6,4 km/h (2 Bft)
13.06.2014 00:00 14,3 C 77 % 1021,6 hPa 0,0 l/m 7,1 km/h (2 Bft) N 0,00 h 0,025 mm 0,0 UV-I 0 W/m 10,3 C 13,7 C 10,5 km/h (2 Bft)
13.06.2014 01:00 13,3 C 81 % 1021,4 hPa 0,0 l/m 2,5 km/h (1 Bft) N-NO 0,00 h 0,025 mm 0,0 UV-I 0 W/m 10,1 C 13,2 C 4,2 km/h (1 Bft)
13.06.2014 02:00 12,2 C 86 % 1021,1 hPa 0,0 l/m 0,2 km/h (0 Bft) N 0,00 h 0,025 mm 0,0 UV-I 0 W/m 9,9 C 12,2 C 0,5 km/h (0 Bft)
13.06.2014 03:00 11,6 C 88 % 1020,7 hPa 0,0 l/m 0,0 km/h (0 Bft) O-SO 0,00 h 0,000 mm 0,0 UV-I 0 W/m 9,7 C 11,6 C 0,5 km/h (0 Bft)
13.06.2014 04:00 10,6 C 91 % 1020,3 hPa 0,0 l/m 0,1 km/h (0 Bft) S-SO 0,00 h 0,000 mm 0,0 UV-I 0 W/m 9,2 C 10,6 C 0,4 km/h (0 Bft)
13.06.2014 05:00 9,6 C 93 % 1020,1 hPa 0,0 l/m 0,1 km/h (0 Bft) S-SO 0,00 h 0,000 mm 0,0 UV-I 13 W/m 8,5 C 9,6 C 0,4 km/h (0 Bft)
13.06.2014 06:00 10,3 C 91 % 1020,2 hPa 0,0 l/m 0,0 km/h (0 Bft) S-SO 0,00 h 0,000 mm 0,0 UV-I 28 W/m 9,0 C 10,3 C 0,4 km/h (0 Bft)
13.06.2014 07:00 12,9 C 85 % 1020,0 hPa 0,0 l/m 2,1 km/h (1 Bft) N-NO 0,60 h 0,025 mm 1,1 UV-I 210 W/m 10,3 C 12,8 C 3,7 km/h (1 Bft)
13.06.2014 08:00 15,7 C 72 % 1019,7 hPa 0,0 l/m 3,5 km/h (1 Bft) NW 1,00 h 0,102 mm 2,1 UV-I 476 W/m 10,5 C 15,6 C 6,1 km/h (2 Bft)
13.06.2014 09:00 17,4 C 62 % 1019,5 hPa 0,0 l/m 7,4 km/h (2 Bft) N 1,00 h 0,254 mm 3,5 UV-I 636 W/m 10,0 C 16,6 C 11,4 km/h (2 Bft)
13.06.2014 10:00 18,8 C 57 % 1019,2 hPa 0,0 l/m 6,8 km/h (2 Bft) NW 1,00 h 0,381 mm 4,5 UV-I 608 W/m 10,0 C 18,3 C 10,4 km/h (2 Bft)
13.06.2014 11:00 20,2 C 49 % 1018,7 hPa 0,0 l/m 6,9 km/h (2 Bft) NW 1,00 h 0,381 mm 6,4 UV-I 819 W/m 9,2 C 19,8 C 10,8 km/h (2 Bft)
13.06.2014 12:00 21,5 C 44 % 1018,2 hPa 0,0 l/m 8,9 km/h (2 Bft) NW 1,00 h 0,508 mm 7,5 UV-I 893 W/m 8,8 C 20,5 C 13,8 km/h (3 Bft)
13.06.2014 13:00 22,6 C 41 % 1017,5 hPa 0,0 l/m 8,9 km/h (2 Bft) N 1,00 h 0,584 mm 7,6 UV-I 884 W/m 8,7 C 21,8 C 14,0 km/h (3 Bft)
13.06.2014 14:00 23,3 C 38 % 1016,9 hPa 0,0 l/m 10,7 km/h (2 Bft) N-NW 1,00 h 0,610 mm 7,0 UV-I 851 W/m 8,0 C 22,1 C 16,7 km/h (3 Bft)
13.06.2014 15:00 23,6 C 36 % 1016,3 hPa 0,0 l/m 12,0 km/h (2 Bft) N 1,00 h 0,610 mm 5,6 UV-I 770 W/m 7,6 C 22,2 C 19,0 km/h (3 Bft)
13.06.2014 16:00 23,1 C 36 % 1015,7 hPa 0,0 l/m 11,3 km/h (2 Bft) N 1,00 h 0,584 mm 3,6 UV-I 540 W/m 7,4 C 21,9 C 17,3 km/h (3 Bft)
13.06.2014 17:00 22,1 C 39 % 1015,3 hPa 0,0 l/m 10,5 km/h (2 Bft) N-NW 1,00 h 0,432 mm 1,8 UV-I 231 W/m 7,3 C 20,9 C 16,2 km/h (3 Bft)
13.06.2014 18:00 20,6 C 44 % 1015,2 hPa 0,0 l/m 13,4 km/h (3 Bft) N 1,00 h 0,229 mm 0,9 UV-I 136 W/m 8,1 C 18,5 C 20,5 km/h (4 Bft)
13.06.2014 19:00 18,9 C 52 % 1015,7 hPa 0,0 l/m 12,9 km/h (3 Bft) N 0,78 h 0,178 mm 0,6 UV-I 82 W/m 8,8 C 16,6 C 19,6 km/h (3 Bft)
13.06.2014 20:00 17,3 C 58 % 1015,9 hPa 0,0 l/m 11,0 km/h (2 Bft) N 0,00 h 0,127 mm 0,0 UV-I 27 W/m 9,0 C 15,3 C 16,6 km/h (3 Bft)
13.06.2014 21:00 16,1 C 61 % 1016,2 hPa 0,0 l/m 6,0 km/h (2 Bft) N 0,00 h 0,076 mm 0,0 UV-I 6 W/m 8,6 C 15,7 C 9,4 km/h (2 Bft)
13.06.2014 22:00 14,8 C 67 % 1016,4 hPa 0,0 l/m 3,3 km/h (1 Bft) N 0,00 h 0,025 mm 0,0 UV-I 0 W/m 8,7 C 14,8 C 5,8 km/h (2 Bft)
13.06.2014 23:00 13,7 C 72 % 1016,5 hPa 0,0 l/m 2,3 km/h (1 Bft) N-NO 0,00 h 0,025 mm 0,0 UV-I 0 W/m 8,7 C 13,7 C 4,4 km/h (1 Bft)
14.06.2014 00:00 12,5 C 78 % 1016,5 hPa 0,0 l/m 0,7 km/h (0 Bft) N 0,00 h 0,025 mm 0,0 UV-I 0 W/m 8,7 C 12,5 C 1,3 km/h (1 Bft)
14.06.2014 01:00 11,0 C 85 % 1016,4 hPa 0,0 l/m 0,3 km/h (0 Bft) O 0,00 h 0,025 mm 0,0 UV-I 0 W/m 8,5 C 11,0 C 0,9 km/h (0 Bft)
14.06.2014 02:00 10,7 C 87 % 1016,2 hPa 0,0 l/m 0,1 km/h (0 Bft) O 0,00 h 0,000 mm 0,0 UV-I 0 W/m 8,5 C 10,7 C 0,5 km/h (0 Bft)
14.06.2014 03:00 10,3 C 89 % 1016,0 hPa 0,0 l/m 0,0 km/h (0 Bft) N 0,00 h 0,000 mm 0,0 UV-I 0 W/m 8,5 C 10,3 C 0,2 km/h (0 Bft)
14.06.2014 04:00 10,1 C 89 % 1015,7 hPa 0,0 l/m 0,0 km/h (0 Bft) O 0,00 h 0,000 mm 0,0 UV-I 0 W/m 8,5 C 10,1 C 0,4 km/h (0 Bft)
14.06.2014 05:00 11,1 C 86 % 1015,5 hPa 0,0 l/m 1,8 km/h (1 Bft) NW 0,00 h 0,000 mm 0,0 UV-I 15 W/m 9,0 C 11,1 C 3,3 km/h (1 Bft)
14.06.2014 06:00 11,4 C 84 % 1015,4 hPa 0,0 l/m 2,7 km/h (1 Bft) N 0,67 h 0,000 mm 0,5 UV-I 66 W/m 8,8 C 11,4 C 4,9 km/h (1 Bft)
14.06.2014 07:00 12,2 C 78 % 1015,6 hPa 0,0 l/m 6,6 km/h (2 Bft) N-NO 1,00 h 0,051 mm 0,6 UV-I 135 W/m 8,4 C 11,5 C 10,7 km/h (2 Bft)
14.06.2014 08:00 13,2 C 71 % 1015,8 hPa 0,0 l/m 7,7 km/h (2 Bft) N 1,00 h 0,076 mm 1,1 UV-I 222 W/m 8,1 C 12,1 C 11,8 km/h (2 Bft)
14.06.2014 09:00 14,3 C 63 % 1016,1 hPa 0,0 l/m 8,8 km/h (2 Bft) N-NO 1,00 h 0,152 mm 2,4 UV-I 373 W/m 7,4 C 12,9 C 13,2 km/h (3 Bft)
14.06.2014 10:00 15,3 C 58 % 1016,1 hPa 0,0 l/m 8,9 km/h (2 Bft) N 1,00 h 0,254 mm 4,2 UV-I 677 W/m 7,1 C 14,0 C 13,2 km/h (3 Bft)
14.06.2014 11:00 16,0 C 52 % 1016,1 hPa 0,0 l/m 9,5 km/h (2 Bft) NW 1,00 h 0,381 mm 4,1 UV-I 549 W/m 6,1 C 14,5 C 14,4 km/h (3 Bft)
14.06.2014 12:00 16,4 C 52 % 1016,2 hPa 0,0 l/m 10,3 km/h (2 Bft) NW 1,00 h 0,330 mm 4,6 UV-I 587 W/m 6,4 C 14,6 C 15,5 km/h (3 Bft)
14.06.2014 13:00 16,9 C 49 % 1016,1 hPa 0,0 l/m 10,2 km/h (2 Bft) NW 1,00 h 0,356 mm 5,3 UV-I 628 W/m 6,2 C 15,2 C 16,4 km/h (3 Bft)
14.06.2014 14:00 17,0 C 48 % 1016,1 hPa 0,0 l/m 9,6 km/h (2 Bft) N 1,00 h 0,406 mm 3,9 UV-I 468 W/m 6,0 C 15,6 C 15,0 km/h (3 Bft)
14.06.2014 15:00 17,6 C 46 % 1016,0 hPa 0,0 l/m 9,9 km/h (2 Bft) N 0,98 h 0,305 mm 3,9 UV-I 477 W/m 5,9 C 16,0 C 14,8 km/h (3 Bft)
14.06.2014 16:00 17,5 C 48 % 1016,0 hPa 0,0 l/m 10,1 km/h (2 Bft) N-NO 1,02 h 0,356 mm 2,2 UV-I 353 W/m 6,4 C 15,9 C 15,6 km/h (3 Bft)
14.06.2014 17:00 16,8 C 50 % 1015,9 hPa 0,0 l/m 9,2 km/h (2 Bft) N 1,00 h 0,254 mm 1,6 UV-I 212 W/m 6,2 C 15,5 C 13,9 km/h (3 Bft)
14.06.2014 18:00 16,5 C 53 % 1015,8 hPa 0,0 l/m 11,0 km/h (2 Bft) N 1,00 h 0,178 mm 0,9 UV-I 116 W/m 7,0 C 14,5 C 16,7 km/h (3 Bft)
14.06.2014 19:00 16,1 C 57 % 1016,0 hPa 0,0 l/m 10,2 km/h (2 Bft) N 0,85 h 0,127 mm 0,6 UV-I 80 W/m 7,6 C 14,3 C 16,0 km/h (3 Bft)
14.06.2014 20:00 15,0 C 61 % 1016,6 hPa 0,0 l/m 9,9 km/h (2 Bft) N 0,20 h 0,102 mm 0,0 UV-I 37 W/m 7,4 C 13,2 C 14,7 km/h (3 Bft)
14.06.2014 21:00 13,3 C 69 % 1017,3 hPa 0,0 l/m 7,4 km/h (2 Bft) N-NO 0,00 h 0,076 mm 0,0 UV-I 7 W/m 7,8 C 12,6 C 11,6 km/h (2 Bft)
14.06.2014 22:00 11,7 C 76 % 1018,2 hPa 0,0 l/m 4,0 km/h (1 Bft) N-NO 0,00 h 0,025 mm 0,0 UV-I 0 W/m 7,7 C 11,6 C 7,0 km/h (2 Bft)
14.06.2014 23:00 10,9 C 81 % 1018,6 hPa 0,0 l/m 4,6 km/h (1 Bft) N 0,00 h 0,025 mm 0,0 UV-I 0 W/m 7,7 C 10,8 C 7,4 km/h (2 Bft)
15.06.2014 00:00 10,1 C 85 % 1018,9 hPa 0,0 l/m 4,1 km/h (1 Bft) N 0,00 h 0,025 mm 0,0 UV-I 0 W/m 7,8 C 10,0 C 7,0 km/h (2 Bft)
15.06.2014 01:00 9,6 C 88 % 1018,8 hPa 0,0 l/m 0,1 km/h (0 Bft) N 0,00 h 0,025 mm 0,0 UV-I 0 W/m 7,8 C 9,6 C 0,5 km/h (0 Bft)
15.06.2014 02:00 9,0 C 90 % 1018,7 hPa 0,0 l/m 0,2 km/h (0 Bft) N-NW 0,00 h 0,000 mm 0,0 UV-I 0 W/m 7,5 C 9,0 C 0,8 km/h (0 Bft)
15.06.2014 03:00 7,7 C 92 % 1018,8 hPa 0,0 l/m 0,1 km/h (0 Bft) O 0,00 h 0,000 mm 0,0 UV-I 0 W/m 6,5 C 7,7 C 0,4 km/h (0 Bft)
15.06.2014 04:00 6,9 C 93 % 1018,9 hPa 0,0 l/m 0,0 km/h (0 Bft) N 0,00 h 0,000 mm 0,0 UV-I 0 W/m 5,9 C 6,9 C 0,1 km/h (0 Bft)
15.06.2014 05:00 6,4 C 94 % 1019,2 hPa 0,0 l/m 0,0 km/h (0 Bft) N 0,00 h 0,000 mm 0,0 UV-I 12 W/m 5,4 C 6,4 C 0,0 km/h (0 Bft)
15.06.2014 06:00 7,4 C 93 % 1019,6 hPa 0,0 l/m 0,2 km/h (0 Bft) O-SO 0,48 h 0,000 mm 0,5 UV-I 48 W/m 6,4 C 7,4 C 0,9 km/h (0 Bft)
15.06.2014 07:00 9,5 C 92 % 1019,9 hPa 0,0 l/m 0,3 km/h (0 Bft) S 1,00 h 0,025 mm 0,6 UV-I 86 W/m 8,2 C 9,5 C 1,1 km/h (1 Bft)
15.06.2014 08:00 11,5 C 87 % 1020,1 hPa 0,0 l/m 4,4 km/h (1 Bft) N 1,00 h 0,051 mm 0,9 UV-I 147 W/m 9,5 C 11,4 C 6,6 km/h (2 Bft)
15.06.2014 09:00 13,9 C 77 % 1020,1 hPa 0,0 l/m 4,4 km/h (1 Bft) N-NO 1,00 h 0,076 mm 2,6 UV-I 414 W/m 9,9 C 13,8 C 7,6 km/h (2 Bft)
15.06.2014 10:00 14,8 C 71 % 1019,9 hPa 0,0 l/m 2,2 km/h (1 Bft) SO 1,00 h 0,229 mm 3,0 UV-I 384 W/m 9,5 C 14,8 C 4,6 km/h (1 Bft)
15.06.2014 11:00 14,8 C 70 % 1019,9 hPa 0,0 l/m 2,8 km/h (1 Bft) N-NO 1,00 h 0,203 mm 1,4 UV-I 165 W/m 9,3 C 14,7 C 5,0 km/h (1 Bft)
15.06.2014 12:00 15,4 C 68 % 1020,2 hPa 0,0 l/m 8,7 km/h (2 Bft) N-NO 1,00 h 0,102 mm 2,4 UV-I 248 W/m 9,6 C 14,1 C 13,2 km/h (3 Bft)
15.06.2014 13:00 16,0 C 66 % 1020,2 hPa 0,0 l/m 7,0 km/h (2 Bft) N 1,00 h 0,178 mm 4,0 UV-I 413 W/m 9,5 C 15,3 C 10,7 km/h (2 Bft)
15.06.2014 14:00 17,0 C 59 % 1019,9 hPa 0,0 l/m 4,8 km/h (1 Bft) N 1,00 h 0,254 mm 3,6 UV-I 395 W/m 9,0 C 16,8 C 7,9 km/h (2 Bft)
15.06.2014 15:00 17,9 C 54 % 1019,6 hPa 0,0 l/m 4,5 km/h (1 Bft) O-NO 1,00 h 0,254 mm 3,6 UV-I 479 W/m 8,5 C 17,8 C 8,9 km/h (2 Bft)
15.06.2014 16:00 18,1 C 56 % 1019,4 hPa 0,0 l/m 5,1 km/h (1 Bft) O-NO 1,00 h 0,305 mm 2,7 UV-I 460 W/m 9,0 C 17,8 C 9,0 km/h (2 Bft)
15.06.2014 17:00 18,0 C 49 % 1018,9 hPa 0,0 l/m 8,5 km/h (2 Bft) N 1,00 h 0,279 mm 1,9 UV-I 267 W/m 7,2 C 17,0 C 12,2 km/h (2 Bft)
15.06.2014 18:00 17,7 C 50 % 1018,8 hPa 0,0 l/m 8,0 km/h (2 Bft) NO 1,00 h 0,203 mm 0,7 UV-I 121 W/m 7,2 C 16,8 C 12,8 km/h (3 Bft)
15.06.2014 19:00 16,8 C 52 % 1018,9 hPa 0,0 l/m 6,8 km/h (2 Bft) NO 0,90 h 0,127 mm 0,5 UV-I 78 W/m 6,9 C 16,3 C 10,7 km/h (2 Bft)
15.06.2014 20:00 15,8 C 54 % 1019,1 hPa 0,0 l/m 3,6 km/h (1 Bft) NO 0,00 h 0,102 mm 0,0 UV-I 22 W/m 6,6 C 15,7 C 6,8 km/h (2 Bft)
15.06.2014 21:00 13,6 C 62 % 1019,6 hPa 0,0 l/m 1,8 km/h (1 Bft) NO 0,00 h 0,051 mm 0,0 UV-I 7 W/m 6,5 C 13,6 C 4,0 km/h (1 Bft)
15.06.2014 22:00 12,0 C 69 % 1020,2 hPa 0,0 l/m 0,5 km/h (0 Bft) O-SO 0,00 h 0,025 mm 0,0 UV-I 0 W/m 6,5 C 12,0 C 2,0 km/h (1 Bft)
15.06.2014 23:00 10,3 C 77 % 1020,5 hPa 0,0 l/m 0,1 km/h (0 Bft) O-SO 0,00 h 0,025 mm 0,0 UV-I 0 W/m 6,4 C 10,3 C 0,7 km/h (0 Bft)
Min-Datum _ 09.06.14 09.06.14 10.06.14 - 09.06.14 - - - - - 14.06.14 15.06.14 09.06.14
_ Min-Zeit 00:28 18:21 18:06 - 00:00 - - - - - 15:52 05:33 00:00
Minimum _ 0,0 C 23 % 1014,7 hPa - 0,0 km/h (0 Bft) - - - - - 4,4 C 6,2 C 0,0 km/h (0 Bft)
Max-Datum _ 10.06.14 15.06.14 12.06.14 11.06.14 11.06.14 - 12.06.14 09.06.14 14.06.14 14.06.14 11.06.14 10.06.14 11.06.14
_ Max-Zeit 15:28 05:54 07:07 15:17 14:41 - 08:39 14:00 13:07 12:49 15:46 15:28 14:40
Maximum _ 33,6 C 95 % 1023,5 hPa 0,8 l/m 24,1 km/h
NW (4 Bft)
- 0,08 h 0,686 mm 8,3 UV-I 1318 W/m 21,0 C 33,6 C 32,2 km/h
N-NW (5 Bft)
Durchschnitt _ 19,2 C 65 % 1018,5 hPa #0,8 l/m 4,7 km/h (1 Bft) N #87:28 h #31,868 mm 3,3 UV-I 358 W/m 11,4 C 18,8 C 7,6 km/h (2 Bft)